createdAt,value
2019-02-15T00:00:29.767Z,59.88
2019-02-15T00:01:29.738Z,59.99
2019-02-15T00:02:29.724Z,59.88
2019-02-15T00:03:29.739Z,60.40
2019-02-15T00:04:29.702Z,59.88
2019-02-15T00:05:29.695Z,60.53
2019-02-15T00:06:29.706Z,60.30
2019-02-15T00:07:29.671Z,61.12
2019-02-15T00:08:29.680Z,61.57
2019-02-15T00:09:29.649Z,61.36
2019-02-15T00:10:29.639Z,61.77
2019-02-15T00:11:29.629Z,61.46
2019-02-15T00:12:29.642Z,61.46
2019-02-15T00:13:29.629Z,61.36
2019-02-15T00:14:29.593Z,61.46
2019-02-15T00:15:29.594Z,61.15
2019-02-15T00:16:29.571Z,61.67
2019-02-15T00:17:29.561Z,61.87
2019-02-15T00:18:30.171Z,61.77
2019-02-15T00:19:29.539Z,61.36
2019-02-15T00:20:29.526Z,61.87
2019-02-15T00:21:29.517Z,61.25
2019-02-15T00:22:29.505Z,61.74
2019-02-15T00:23:29.518Z,60.30
2019-02-15T00:24:29.509Z,59.47
2019-02-15T00:25:29.474Z,59.34
2019-02-15T00:26:29.461Z,59.13
2019-02-15T00:27:29.452Z,59.34
2019-02-15T00:28:29.469Z,59.03
2019-02-15T00:29:29.428Z,58.09
2019-02-15T00:30:29.441Z,57.99
2019-02-15T00:31:29.407Z,58.72
2019-02-15T00:32:29.397Z,58.30
2019-02-15T00:33:29.409Z,59.34
2019-02-15T00:34:29.374Z,58.40
2019-02-15T00:35:29.364Z,59.75
2019-02-15T00:36:29.367Z,59.26
2019-02-15T00:37:29.351Z,60.09
2019-02-15T00:38:29.356Z,59.16
2019-02-15T00:39:29.320Z,59.13
2019-02-15T00:40:29.316Z,58.12
2019-02-15T00:41:29.297Z,58.02
2019-02-15T00:42:29.311Z,57.48
2019-02-15T00:43:29.302Z,57.89
2019-02-15T00:44:29.264Z,56.31
2019-02-15T00:45:29.254Z,56.34
2019-02-15T00:46:29.243Z,56.00
2019-02-15T00:47:29.231Z,56.03
2019-02-15T00:48:29.269Z,55.82
2019-02-15T00:49:29.210Z,56.16
2019-02-15T00:50:29.937Z,57.40
2019-02-15T00:51:29.188Z,57.73
2019-02-15T00:52:29.176Z,59.29
2019-02-15T00:53:29.192Z,59.91
2019-02-15T00:54:29.178Z,60.63
2019-02-15T00:55:29.144Z,59.83
2019-02-15T00:56:29.132Z,61.38
2019-02-15T00:57:29.124Z,61.18
2019-02-15T00:58:29.131Z,59.86
2019-02-15T00:59:29.099Z,60.20
2019-02-15T01:00:29.122Z,62.23
2019-02-15T01:01:29.079Z,63.40
2019-02-15T01:02:29.065Z,63.29
2019-02-15T01:03:29.078Z,63.73
2019-02-15T01:04:29.066Z,63.21
2019-02-15T01:05:29.034Z,63.73
2019-02-15T01:06:29.051Z,63.94
2019-02-15T01:07:29.011Z,63.45
2019-02-15T01:08:29.001Z,63.97
2019-02-15T01:09:29.011Z,65.01
2019-02-15T01:10:28.978Z,65.14
2019-02-15T01:11:28.986Z,65.97
2019-02-15T01:12:28.973Z,65.04
2019-02-15T01:13:31.058Z,65.87
2019-02-15T01:14:28.959Z,66.39
2019-02-15T01:15:28.925Z,66.42
2019-02-15T01:16:28.915Z,66.53
2019-02-15T01:17:28.902Z,66.63
2019-02-15T01:18:28.918Z,65.35
2019-02-15T01:19:28.903Z,65.84
2019-02-15T01:20:28.869Z,66.60
2019-02-15T01:21:28.864Z,66.84
2019-02-15T01:22:28.849Z,68.22
2019-02-15T01:23:28.837Z,68.63
2019-02-15T01:24:28.870Z,68.95
2019-02-15T01:25:28.815Z,68.53
2019-02-15T01:26:28.804Z,68.12
2019-02-15T01:27:28.793Z,68.22
2019-02-15T01:28:28.783Z,67.15
2019-02-15T01:29:28.793Z,66.18
2019-02-15T01:30:28.787Z,65.94
2019-02-15T01:31:28.750Z,65.63
2019-02-15T01:32:28.741Z,62.98
2019-02-15T01:33:28.727Z,62.64
2019-02-15T01:34:28.740Z,61.50
2019-02-15T01:35:28.704Z,60.67
2019-02-15T01:36:28.712Z,59.81
2019-02-15T01:37:28.746Z,59.47
2019-02-15T01:38:28.674Z,59.55
2019-02-15T01:39:28.683Z,59.11
2019-02-15T01:40:28.651Z,58.41
2019-02-15T01:41:28.643Z,58.72
2019-02-15T01:42:28.694Z,58.51
2019-02-15T01:43:28.617Z,58.83
2019-02-15T01:44:28.630Z,58.00
2019-02-15T01:45:28.595Z,58.28
2019-02-15T01:46:28.587Z,57.66
2019-02-15T01:47:28.576Z,57.66
2019-02-15T01:48:28.582Z,57.66
2019-02-15T01:49:28.600Z,57.45
2019-02-15T01:50:28.544Z,57.76
2019-02-15T01:51:28.530Z,55.98
2019-02-15T01:52:28.520Z,56.18
2019-02-15T01:53:28.513Z,57.53
2019-02-15T01:54:28.533Z,56.73
2019-02-15T01:55:28.513Z,58.18
2019-02-15T01:56:28.478Z,57.79
2019-02-15T01:57:28.467Z,57.79
2019-02-15T01:58:28.455Z,57.48
2019-02-15T01:59:28.465Z,58.20
2019-02-15T02:00:28.434Z,57.89
2019-02-15T02:01:28.449Z,57.56
2019-02-15T02:02:28.411Z,58.18
2019-02-15T02:03:28.402Z,55.98
2019-02-15T02:04:28.414Z,57.53
2019-02-15T02:05:28.379Z,56.93
2019-02-15T02:06:28.371Z,57.79
2019-02-15T02:07:28.375Z,58.10
2019-02-15T02:08:28.348Z,56.65
2019-02-15T02:09:28.358Z,57.89
2019-02-15T02:10:28.325Z,57.58
2019-02-15T02:11:28.315Z,56.75
2019-02-15T02:12:28.304Z,57.27
2019-02-15T02:13:28.316Z,57.58
2019-02-15T02:14:28.303Z,59.71
2019-02-15T02:15:28.273Z,60.70
2019-02-15T02:16:28.259Z,62.28
2019-02-15T02:17:28.249Z,62.76
2019-02-15T02:18:28.237Z,63.79
2019-02-15T02:19:28.284Z,64.86
2019-02-15T02:20:28.216Z,65.10
2019-02-15T02:21:28.206Z,64.89
2019-02-15T02:22:28.194Z,65.10
2019-02-15T02:23:28.184Z,65.83
2019-02-15T02:24:28.195Z,66.45
2019-02-15T02:25:28.191Z,66.14
2019-02-15T02:26:28.151Z,64.89
2019-02-15T02:27:28.147Z,64.45
2019-02-15T02:28:28.128Z,63.17
2019-02-15T02:29:28.139Z,62.45
2019-02-15T02:30:28.110Z,63.38
2019-02-15T02:31:28.116Z,64.14
2019-02-15T02:32:28.087Z,64.14
2019-02-15T02:33:28.073Z,64.69
2019-02-15T02:34:28.085Z,65.20
2019-02-15T02:35:28.057Z,65.41
2019-02-15T02:36:28.043Z,65.93
2019-02-15T02:37:28.047Z,65.31
2019-02-15T02:38:28.035Z,65.52
2019-02-15T02:39:28.030Z,63.09
2019-02-15T02:40:27.998Z,62.76
2019-02-15T02:41:27.988Z,62.52
2019-02-15T02:42:27.978Z,63.09
2019-02-15T02:43:27.994Z,63.07
2019-02-15T02:44:27.985Z,63.82
2019-02-15T02:45:27.943Z,63.51
2019-02-15T02:46:27.934Z,63.93
2019-02-15T02:47:27.922Z,64.45
2019-02-15T02:48:27.970Z,64.58
2019-02-15T02:49:27.944Z,63.82
2019-02-15T02:50:27.888Z,65.00
2019-02-15T02:51:27.877Z,65.72
2019-02-15T02:52:27.867Z,65.75
2019-02-15T02:53:27.880Z,66.06
2019-02-15T02:54:27.844Z,65.31
2019-02-15T02:55:27.875Z,66.48
2019-02-15T02:56:27.823Z,65.93
2019-02-15T02:57:27.811Z,65.31
2019-02-15T02:58:27.809Z,65.72
2019-02-15T02:59:27.788Z,66.03
2019-02-15T03:00:33.479Z,65.72
2019-02-15T03:01:28.799Z,65.52
2019-02-15T03:02:27.756Z,65.07
2019-02-15T03:03:27.748Z,65.07
2019-02-15T03:04:27.740Z,64.76
2019-02-15T03:05:27.742Z,65.07
2019-02-15T03:06:27.712Z,65.31
2019-02-15T03:07:27.725Z,65.20
2019-02-15T03:08:27.689Z,66.24
2019-02-15T03:09:27.677Z,65.31
2019-02-15T03:10:27.689Z,66.24
2019-02-15T03:11:27.657Z,65.17
2019-02-15T03:12:27.644Z,65.93
2019-02-15T03:13:27.665Z,67.32
2019-02-15T03:14:27.623Z,66.27
2019-02-15T03:15:27.632Z,68.32
2019-02-15T03:16:27.603Z,68.18
2019-02-15T03:17:27.591Z,66.24
2019-02-15T03:18:27.578Z,66.14
2019-02-15T03:19:27.589Z,65.80
2019-02-15T03:20:31.216Z,64.62
2019-02-15T03:21:27.565Z,64.62
2019-02-15T03:22:27.536Z,64.45
2019-02-15T03:23:27.523Z,65.28
2019-02-15T03:24:27.515Z,65.93
2019-02-15T03:25:27.545Z,66.24
2019-02-15T03:26:27.491Z,65.90
2019-02-15T03:27:27.506Z,66.35
2019-02-15T03:28:27.468Z,67.86
2019-02-15T03:29:27.469Z,67.49
2019-02-15T03:30:27.468Z,67.08
2019-02-15T03:31:27.466Z,67.08
2019-02-15T03:32:27.426Z,67.49
2019-02-15T03:33:27.467Z,66.63
2019-02-15T03:34:27.408Z,66.63
2019-02-15T03:35:27.415Z,65.07
2019-02-15T03:36:27.380Z,66.00
2019-02-15T03:37:27.393Z,66.66
2019-02-15T03:38:27.357Z,66.63
2019-02-15T03:39:27.354Z,64.36
2019-02-15T03:40:27.359Z,63.63
2019-02-15T03:41:27.332Z,62.74
2019-02-15T03:42:27.313Z,62.74
2019-02-15T03:43:27.323Z,61.60
2019-02-15T03:44:27.293Z,61.36
2019-02-15T03:45:27.310Z,60.95
2019-02-15T03:46:27.269Z,61.13
2019-02-15T03:47:27.260Z,61.34
2019-02-15T03:48:27.248Z,61.36
2019-02-15T03:49:27.250Z,60.20
2019-02-15T03:50:27.246Z,60.72
2019-02-15T03:51:27.217Z,60.72
2019-02-15T03:52:27.207Z,60.69
2019-02-15T03:53:27.193Z,59.86
2019-02-15T03:54:27.179Z,59.55
2019-02-15T03:55:27.217Z,59.96
2019-02-15T03:56:27.159Z,59.66
2019-02-15T03:57:27.148Z,59.99
2019-02-15T03:58:27.137Z,60.06
2019-02-15T03:59:27.125Z,60.30
2019-02-15T04:00:27.137Z,60.79
2019-02-15T04:01:27.138Z,60.17
2019-02-15T04:02:27.095Z,60.61
2019-02-15T04:03:27.084Z,59.99
2019-02-15T04:04:27.075Z,61.24
2019-02-15T04:05:27.083Z,61.24
2019-02-15T04:06:27.053Z,59.99
2019-02-15T04:07:27.061Z,62.06
2019-02-15T04:08:27.029Z,61.26
2019-02-15T04:09:27.016Z,63.09
2019-02-15T04:10:27.026Z,63.40
2019-02-15T04:11:26.997Z,64.67
2019-02-15T04:12:26.985Z,64.67
2019-02-15T04:13:27.005Z,64.02
2019-02-15T04:14:32.870Z,63.60
2019-02-15T04:17:45.422Z,62.74
2019-02-15T04:18:45.386Z,62.74
2019-02-15T04:19:45.392Z,62.74
2019-02-15T04:20:45.384Z,62.64
2019-02-15T04:21:45.353Z,62.64
2019-02-15T04:22:45.363Z,62.33
2019-02-15T04:23:45.330Z,62.54
2019-02-15T04:24:45.319Z,62.61
2019-02-15T04:25:45.329Z,61.47
2019-02-15T04:26:45.298Z,61.78
2019-02-15T04:27:45.301Z,62.30
2019-02-15T04:28:45.277Z,61.68
2019-02-15T04:29:45.265Z,61.68
2019-02-15T04:30:45.279Z,61.88
2019-02-15T04:31:45.243Z,62.27
2019-02-15T04:32:45.231Z,61.44
2019-02-15T04:33:45.242Z,62.30
2019-02-15T04:34:45.233Z,62.30
2019-02-15T04:35:45.219Z,61.88
2019-02-15T04:36:45.188Z,62.51
2019-02-15T04:37:45.178Z,62.54
2019-02-15T04:38:45.174Z,62.74
2019-02-15T04:39:45.167Z,63.06
2019-02-15T04:40:45.168Z,63.29
2019-02-15T04:41:45.133Z,64.33
2019-02-15T04:42:45.122Z,65.29
2019-02-15T04:43:45.117Z,65.63
2019-02-15T04:44:45.112Z,66.15
2019-02-15T04:45:45.146Z,66.71
2019-02-15T04:46:45.079Z,65.94
2019-02-15T04:47:45.067Z,65.70
2019-02-15T04:48:45.057Z,64.95
2019-02-15T04:49:45.045Z,64.25
2019-02-15T04:50:45.058Z,63.60
2019-02-15T04:51:45.062Z,63.26
2019-02-15T04:52:45.017Z,62.95
2019-02-15T04:53:45.003Z,62.54
2019-02-15T04:54:44.990Z,63.89
2019-02-15T04:55:45.007Z,62.95
2019-02-15T04:56:44.968Z,62.43
2019-02-15T04:57:44.972Z,63.37
2019-02-15T04:58:44.947Z,64.02
2019-02-15T04:59:44.935Z,64.64
2019-02-15T05:00:44.961Z,64.77
2019-02-15T05:01:44.916Z,66.15
2019-02-15T05:02:44.903Z,65.70
2019-02-15T05:03:44.927Z,65.29
2019-02-15T05:04:44.906Z,64.46
2019-02-15T05:05:44.871Z,65.06
2019-02-15T05:06:44.887Z,63.47
2019-02-15T05:07:44.846Z,63.57
2019-02-15T05:08:44.841Z,63.47
2019-02-15T05:09:44.840Z,64.20
2019-02-15T05:10:44.815Z,63.89
2019-02-15T05:11:44.824Z,63.57
2019-02-15T05:12:44.795Z,62.95
2019-02-15T05:13:44.783Z,62.51
2019-02-15T05:14:52.713Z,63.13
2019-02-15T05:15:45.771Z,63.13
2019-02-15T05:16:44.774Z,63.02
2019-02-15T05:17:44.737Z,62.71
2019-02-15T05:18:44.726Z,62.51
2019-02-15T05:19:44.714Z,63.10
2019-02-15T05:20:44.704Z,62.79
2019-02-15T05:21:44.732Z,62.99
2019-02-15T05:22:44.717Z,61.72
2019-02-15T05:23:44.672Z,61.76
2019-02-15T05:24:44.660Z,62.48
2019-02-15T05:25:44.648Z,61.86
2019-02-15T05:26:44.667Z,61.34
2019-02-15T05:27:44.625Z,61.72
2019-02-15T05:28:44.640Z,60.77
2019-02-15T05:29:44.603Z,60.56
2019-02-15T05:30:44.592Z,61.18
2019-02-15T05:31:44.603Z,60.97
2019-02-15T05:32:44.570Z,60.87
2019-02-15T05:33:44.561Z,60.35
2019-02-15T05:34:44.572Z,60.77
2019-02-15T05:35:44.538Z,61.18
2019-02-15T05:36:44.547Z,60.14
2019-02-15T05:37:44.514Z,60.25
2019-02-15T05:38:44.506Z,60.56
2019-02-15T05:39:44.492Z,61.52
2019-02-15T05:40:44.503Z,61.21
2019-02-15T05:41:44.491Z,61.83
2019-02-15T05:42:44.457Z,61.83
2019-02-15T05:43:44.450Z,61.90
2019-02-15T05:44:44.436Z,61.90
2019-02-15T05:45:44.425Z,61.69
2019-02-15T05:46:44.465Z,61.18
2019-02-15T05:47:44.404Z,60.97
2019-02-15T05:48:44.392Z,61.52
2019-02-15T05:49:44.385Z,61.69
2019-02-15T05:50:44.371Z,61.80
2019-02-15T05:51:44.378Z,61.72
2019-02-15T05:52:44.367Z,61.41
2019-02-15T05:53:44.337Z,61.62
2019-02-15T05:54:44.324Z,61.80
2019-02-15T05:55:44.313Z,61.28
2019-02-15T05:56:44.323Z,61.38
2019-02-15T05:57:44.296Z,61.41
2019-02-15T05:58:44.301Z,61.83
2019-02-15T05:59:44.267Z,61.52
2019-02-15T06:00:44.256Z,61.93
2019-02-15T06:01:44.267Z,61.69
2019-02-15T06:02:44.233Z,62.01
2019-02-15T06:03:44.229Z,61.93
2019-02-15T06:04:44.233Z,61.49
2019-02-15T06:05:44.203Z,62.11
2019-02-15T06:06:44.211Z,61.93
2019-02-15T06:07:44.176Z,61.72
2019-02-15T06:08:44.165Z,61.72
2019-02-15T06:09:44.156Z,62.45
2019-02-15T06:10:44.161Z,62.45
2019-02-15T06:11:44.154Z,62.58
2019-02-15T06:12:44.121Z,61.62
2019-02-15T06:13:44.109Z,62.35
2019-02-15T06:14:44.100Z,62.45
2019-02-15T06:15:44.095Z,62.45
2019-02-15T06:16:44.117Z,61.41
2019-02-15T06:17:44.063Z,61.93
2019-02-15T06:18:44.054Z,62.58
2019-02-15T06:19:44.044Z,62.45
2019-02-15T06:20:44.029Z,62.55
2019-02-15T06:21:44.041Z,62.14
2019-02-15T06:22:44.030Z,62.37
2019-02-15T06:23:43.997Z,62.48
2019-02-15T06:24:43.987Z,62.79
2019-02-15T06:25:43.985Z,62.55
2019-02-15T06:26:43.983Z,62.79
2019-02-15T06:27:43.951Z,62.16
2019-02-15T06:28:43.949Z,62.76
2019-02-15T06:29:43.952Z,62.58
2019-02-15T06:30:43.925Z,62.68
2019-02-15T06:31:43.929Z,62.48
2019-02-15T06:32:43.897Z,62.66
2019-02-15T06:33:43.889Z,62.99
2019-02-15T06:34:43.894Z,63.10
2019-02-15T06:35:43.873Z,63.20
2019-02-15T06:36:43.885Z,63.31
2019-02-15T06:37:43.846Z,63.31
2019-02-15T06:38:43.838Z,62.48
2019-02-15T06:39:43.817Z,62.58
2019-02-15T06:40:43.805Z,63.20
2019-02-15T06:41:43.818Z,63.31
2019-02-15T06:42:43.793Z,63.51
2019-02-15T06:43:43.841Z,63.82
2019-02-15T06:44:43.777Z,63.41
2019-02-15T06:45:43.759Z,63.20
2019-02-15T06:46:43.759Z,62.89
2019-02-15T06:47:43.725Z,62.66
2019-02-15T06:48:43.716Z,62.87
2019-02-15T06:49:43.736Z,62.63
2019-02-15T06:50:43.695Z,62.42
2019-02-15T06:51:43.720Z,62.52
2019-02-15T06:52:43.670Z,62.87
2019-02-15T06:53:43.659Z,62.84
2019-02-15T06:54:43.650Z,62.63
2019-02-15T06:55:43.700Z,62.63
2019-02-15T06:56:43.625Z,62.73
2019-02-15T06:57:43.636Z,62.52
2019-02-15T06:58:45.652Z,62.18
2019-02-15T06:59:43.592Z,62.84
2019-02-15T07:00:43.593Z,62.63
2019-02-15T07:01:43.571Z,62.55
2019-02-15T07:02:43.579Z,62.87
2019-02-15T07:03:43.548Z,62.52
2019-02-15T07:04:43.537Z,62.32
2019-02-15T07:05:43.526Z,62.84
2019-02-15T07:06:43.522Z,62.52
2019-02-15T07:07:43.526Z,62.32
2019-02-15T07:08:43.492Z,61.49
2019-02-15T07:09:43.482Z,61.67
2019-02-15T07:10:43.467Z,61.67
2019-02-15T07:11:43.461Z,61.46
2019-02-15T07:12:43.479Z,60.84
2019-02-15T07:13:43.452Z,61.15
2019-02-15T07:14:43.423Z,61.36
2019-02-15T07:15:43.413Z,61.15
2019-02-15T07:16:43.415Z,59.88
2019-02-15T07:17:43.425Z,60.32
2019-02-15T07:18:43.378Z,59.78
2019-02-15T07:19:43.924Z,60.06
2019-02-15T07:20:43.365Z,59.03
2019-02-15T07:21:43.374Z,59.64
2019-02-15T07:22:43.373Z,59.75
2019-02-15T07:23:43.335Z,60.19
2019-02-15T07:24:43.325Z,60.37
2019-02-15T07:25:43.299Z,59.34
2019-02-15T07:26:43.288Z,60.81
2019-02-15T07:27:43.302Z,60.60
2019-02-15T07:28:43.269Z,60.68
2019-02-15T07:29:43.255Z,61.20
2019-02-15T07:30:43.260Z,60.14
2019-02-15T07:31:43.248Z,59.55
2019-02-15T07:32:43.243Z,59.55
2019-02-15T07:33:43.208Z,59.55
2019-02-15T07:34:43.203Z,60.34
2019-02-15T07:35:43.186Z,59.64
2019-02-15T07:36:43.178Z,60.37
2019-02-15T07:37:43.193Z,61.20
2019-02-15T07:38:43.207Z,60.89
2019-02-15T07:39:43.150Z,60.37
2019-02-15T07:40:43.131Z,61.33
2019-02-15T07:41:43.175Z,61.71
2019-02-15T07:42:43.136Z,61.92
2019-02-15T07:43:43.100Z,61.40
2019-02-15T07:44:43.084Z,62.16
2019-02-15T07:45:43.257Z,61.12
2019-02-15T07:46:43.101Z,61.17
2019-02-15T07:47:43.079Z,59.80
2019-02-15T07:48:43.047Z,59.08
2019-02-15T07:49:43.038Z,59.18
2019-02-15T07:50:46.097Z,59.39
2019-02-15T07:51:43.465Z,59.49
2019-02-15T07:52:43.403Z,59.41
2019-02-15T07:53:42.983Z,59.28
2019-02-15T07:54:43.161Z,59.49
2019-02-15T07:55:43.138Z,59.28
2019-02-15T07:56:42.962Z,59.83
2019-02-15T07:57:44.019Z,60.75
2019-02-15T07:58:43.098Z,60.65
2019-02-15T07:59:43.045Z,59.72
2019-02-15T08:00:42.958Z,60.34
2019-02-15T08:01:43.622Z,61.17
2019-02-15T08:02:42.903Z,60.86
2019-02-15T08:03:42.870Z,60.65
2019-02-15T08:04:42.863Z,60.75
2019-02-15T08:05:42.910Z,60.42
2019-02-15T08:06:42.847Z,60.73
2019-02-15T08:07:42.856Z,60.63
2019-02-15T08:08:42.825Z,60.73
2019-02-15T08:09:42.801Z,61.04
2019-02-15T08:10:42.801Z,60.52
2019-02-15T08:11:42.783Z,60.00
2019-02-15T08:12:42.861Z,60.11
2019-02-15T08:13:42.768Z,60.00
2019-02-15T08:14:42.755Z,59.80
2019-02-15T08:15:51.344Z,61.01
2019-02-15T08:16:43.722Z,60.00
2019-02-15T08:17:42.745Z,60.60
2019-02-15T08:18:42.727Z,61.11
2019-02-15T08:19:42.720Z,60.00
2019-02-15T08:20:42.681Z,61.52
2019-02-15T08:21:42.704Z,61.22
2019-02-15T08:22:43.169Z,60.60
2019-02-15T08:23:42.730Z,60.39
2019-02-15T08:24:42.642Z,60.18
2019-02-15T08:25:42.623Z,59.84
2019-02-15T08:26:42.643Z,59.64
2019-02-15T08:27:42.644Z,59.44
2019-02-15T08:28:42.591Z,59.74
2019-02-15T08:29:42.613Z,59.95
2019-02-15T08:30:42.566Z,59.92
2019-02-15T08:31:42.557Z,59.53
2019-02-15T08:32:42.558Z,59.74
2019-02-15T08:33:42.557Z,59.30
2019-02-15T08:34:42.590Z,58.79
2019-02-15T08:35:43.106Z,58.89
2019-02-15T08:36:42.600Z,59.30
2019-02-15T08:37:42.494Z,59.61
2019-02-15T08:38:42.832Z,58.76
2019-02-15T08:39:44.598Z,59.28
2019-02-15T08:40:43.033Z,58.45
2019-02-15T08:42:00.200Z,57.83
2019-02-15T08:42:44.400Z,58.86
2019-02-15T08:43:49.587Z,58.04
2019-02-15T08:44:42.418Z,58.01
2019-02-15T08:45:43.796Z,57.70
2019-02-15T08:46:42.394Z,58.42
2019-02-15T08:47:42.438Z,58.11
2019-02-15T08:48:46.169Z,57.81
2019-02-15T08:49:42.357Z,58.32
2019-02-15T08:50:42.345Z,57.81
2019-02-15T08:51:42.336Z,58.29
2019-02-15T08:52:42.324Z,58.09
2019-02-15T08:53:42.342Z,57.91
2019-02-15T08:54:42.336Z,58.53
2019-02-15T08:55:42.289Z,58.19
2019-02-15T08:56:42.278Z,57.68
2019-02-15T08:57:42.318Z,58.50
2019-02-15T08:58:42.289Z,57.03
2019-02-15T08:59:42.250Z,56.54
2019-02-15T09:00:42.236Z,57.44
2019-02-15T09:01:42.224Z,58.58
2019-02-15T09:02:42.271Z,55.80
2019-02-15T09:03:42.232Z,56.18
2019-02-15T09:04:42.199Z,55.87
2019-02-15T09:05:42.185Z,55.98
2019-02-15T09:06:42.169Z,56.29
2019-02-15T09:07:42.162Z,55.87
2019-02-15T09:08:42.236Z,55.77
2019-02-15T09:09:42.138Z,55.57
2019-02-15T09:10:42.124Z,56.08
2019-02-15T09:11:42.115Z,55.74
2019-02-15T09:12:42.119Z,55.74
2019-02-15T09:13:42.117Z,55.64
2019-02-15T09:14:42.123Z,55.30
2019-02-15T09:15:42.072Z,55.72
2019-02-15T09:16:42.064Z,54.90
2019-02-15T09:17:42.053Z,55.30
2019-02-15T09:18:42.067Z,55.30
2019-02-15T09:19:42.023Z,54.15
2019-02-15T09:20:42.068Z,53.94
2019-02-15T09:21:42.058Z,53.30
2019-02-15T09:22:41.993Z,53.41
2019-02-15T09:23:42.005Z,53.10
2019-02-15T09:24:41.967Z,52.87
2019-02-15T09:25:41.959Z,52.76
2019-02-15T09:26:42.376Z,52.66
2019-02-15T09:27:41.947Z,53.08
2019-02-15T09:28:41.952Z,52.15
2019-02-15T09:29:41.912Z,52.46
2019-02-15T09:30:41.907Z,52.02
2019-02-15T09:31:41.890Z,52.54
2019-02-15T09:32:41.898Z,52.12
2019-02-15T09:33:41.898Z,53.25
2019-02-15T09:34:41.861Z,51.82
2019-02-15T09:35:41.847Z,52.00
2019-02-15T09:36:41.837Z,52.72
2019-02-15T09:37:41.829Z,52.82
2019-02-15T09:38:41.900Z,52.10
2019-02-15T09:39:41.809Z,52.28
2019-02-15T09:40:41.793Z,51.28
2019-02-15T09:41:41.779Z,51.79
2019-02-15T09:42:41.773Z,52.10
2019-02-15T09:43:41.781Z,52.28
2019-02-15T09:44:41.791Z,51.90
2019-02-15T09:45:41.736Z,52.39
2019-02-15T09:46:41.724Z,51.98
2019-02-15T09:47:41.731Z,51.56
2019-02-15T09:48:41.725Z,52.28
2019-02-15T09:49:42.759Z,51.67
2019-02-15T09:50:41.729Z,52.39
2019-02-15T09:51:41.679Z,52.90
2019-02-15T09:52:41.661Z,51.77
2019-02-15T09:53:41.676Z,52.10
2019-02-15T09:54:41.635Z,52.72
2019-02-15T09:55:41.636Z,53.54
2019-02-15T09:56:41.638Z,52.51
2019-02-15T09:57:41.602Z,52.41
2019-02-15T09:58:41.615Z,52.82
2019-02-15T09:59:41.583Z,52.82
2019-02-15T10:00:41.569Z,53.03
2019-02-15T10:01:41.558Z,53.51
2019-02-15T10:02:41.572Z,53.20
2019-02-15T10:03:41.597Z,52.59
2019-02-15T10:04:41.525Z,53.00
2019-02-15T10:05:41.515Z,53.20
2019-02-15T10:06:41.502Z,52.28
2019-02-15T10:07:41.498Z,52.87
2019-02-15T10:08:41.530Z,52.67
2019-02-15T10:09:41.493Z,53.28
2019-02-15T10:10:41.483Z,52.77
2019-02-15T10:11:41.466Z,53.08
2019-02-15T10:12:41.513Z,52.05
2019-02-15T10:13:41.433Z,52.97
2019-02-15T10:14:41.510Z,52.47
2019-02-15T10:15:41.506Z,53.28
2019-02-15T10:16:41.455Z,52.67
2019-02-15T10:17:41.399Z,52.77
2019-02-15T10:18:41.419Z,52.87
2019-02-15T10:19:41.395Z,52.77
2019-02-15T10:20:41.353Z,52.97
2019-02-15T10:21:41.419Z,52.54
2019-02-15T10:22:41.349Z,52.64
2019-02-15T10:23:41.623Z,53.05
2019-02-15T10:24:41.379Z,52.44
2019-02-15T10:25:42.066Z,52.75
2019-02-15T10:26:41.319Z,53.67
2019-02-15T10:27:42.249Z,53.26
2019-02-15T10:28:41.522Z,53.56
2019-02-15T10:29:41.448Z,54.08
2019-02-15T10:30:41.451Z,53.87
2019-02-15T10:31:41.247Z,53.46
2019-02-15T10:32:41.227Z,54.08
2019-02-15T10:33:41.205Z,53.26
2019-02-15T10:34:41.225Z,53.36
2019-02-15T10:35:41.185Z,54.08
2019-02-15T10:36:41.238Z,53.67
2019-02-15T10:37:41.179Z,54.18
2019-02-15T10:38:41.149Z,54.57
2019-02-15T10:40:58.434Z,53.62
2019-02-15T10:43:14.385Z,53.31
2019-02-15T10:44:14.460Z,53.72
2019-02-15T10:45:14.206Z,53.62
2019-02-15T10:46:13.063Z,53.72
2019-02-15T10:47:14.505Z,52.78
2019-02-15T10:48:14.050Z,52.87
2019-02-15T10:49:13.145Z,53.39
2019-02-15T10:50:20.227Z,52.78
2019-02-15T10:51:14.109Z,53.19
2019-02-15T10:52:13.087Z,52.98
2019-02-15T10:53:13.071Z,53.49
2019-02-15T10:54:20.339Z,53.59
2019-02-15T10:55:13.146Z,52.55
2019-02-15T10:56:13.236Z,52.83
2019-02-15T10:57:13.042Z,52.72
2019-02-15T10:58:12.938Z,52.72
2019-02-15T10:59:12.982Z,53.03
2019-02-15T11:00:12.950Z,52.62
2019-02-15T11:01:12.922Z,52.42
2019-02-15T11:02:20.109Z,53.34
2019-02-15T11:03:13.055Z,53.34
2019-02-15T11:04:13.293Z,53.98
2019-02-15T11:05:12.992Z,53.16
2019-02-15T11:06:12.916Z,53.57
2019-02-15T11:07:12.830Z,53.54
2019-02-15T11:08:12.822Z,53.95
2019-02-15T11:09:12.845Z,53.92
2019-02-15T11:10:12.825Z,52.39
2019-02-15T11:11:12.791Z,53.19
2019-02-15T11:12:12.835Z,52.88
2019-02-15T11:13:12.760Z,52.88
2019-02-15T11:14:12.750Z,52.98
2019-02-15T11:15:12.775Z,52.78
2019-02-15T11:16:12.736Z,52.78
2019-02-15T11:17:12.776Z,51.76
2019-02-15T11:18:12.709Z,51.43
2019-02-15T11:19:12.702Z,49.38
2019-02-15T11:20:12.715Z,49.77
2019-02-15T11:21:12.676Z,48.42
2019-02-15T11:22:12.666Z,47.81
2019-02-15T11:23:12.679Z,47.91
2019-02-15T11:24:12.637Z,47.58
2019-02-15T11:25:12.656Z,47.49
2019-02-15T11:26:12.665Z,48.30
2019-02-15T11:27:12.729Z,45.95
2019-02-15T11:28:12.715Z,46.56
2019-02-15T11:29:12.602Z,46.67
2019-02-15T11:30:12.623Z,46.97
2019-02-15T11:31:12.562Z,48.40
2019-02-15T11:32:12.556Z,48.10
2019-02-15T11:33:12.533Z,48.30
2019-02-15T11:34:12.540Z,48.50
2019-02-15T11:35:12.541Z,47.49
2019-02-15T11:36:12.506Z,47.08
2019-02-15T11:37:12.552Z,46.64
2019-02-15T11:38:12.478Z,46.95
2019-02-15T11:39:12.482Z,45.91
2019-02-15T11:40:12.493Z,47.24
2019-02-15T11:41:12.451Z,46.22
2019-02-15T11:42:12.482Z,45.94
2019-02-15T11:43:12.424Z,46.32
2019-02-15T11:44:12.412Z,46.34
2019-02-15T11:45:12.431Z,47.16
2019-02-15T11:46:12.403Z,46.11
2019-02-15T11:47:12.384Z,45.91
2019-02-15T11:48:12.396Z,45.50
2019-02-15T11:49:12.358Z,45.53
2019-02-15T11:50:12.378Z,44.71
2019-02-15T11:51:12.339Z,45.32
2019-02-15T11:52:12.325Z,45.63
2019-02-15T11:53:12.316Z,45.83
2019-02-15T11:54:12.337Z,45.94
2019-02-15T11:55:12.344Z,45.63
2019-02-15T11:56:12.276Z,44.92
2019-02-15T11:57:12.271Z,46.01
2019-02-15T11:58:12.258Z,45.40
2019-02-15T11:59:12.250Z,45.71
2019-02-15T12:00:14.523Z,45.50
2019-02-15T12:01:12.265Z,44.69
2019-02-15T12:02:12.221Z,43.75
2019-02-15T12:03:12.205Z,44.69
2019-02-15T12:04:12.190Z,45.68
2019-02-15T12:05:12.202Z,44.69
2019-02-15T12:06:12.170Z,44.87
2019-02-15T12:07:12.208Z,44.97
2019-02-15T12:08:12.149Z,44.67
2019-02-15T12:09:12.140Z,43.96
2019-02-15T12:10:12.149Z,42.92
2019-02-15T12:11:12.111Z,43.43
2019-02-15T12:12:12.143Z,43.53
2019-02-15T12:13:12.088Z,43.12
2019-02-15T12:14:12.111Z,43.65
2019-02-15T12:15:12.108Z,43.73
2019-02-15T12:16:12.056Z,42.71
2019-02-15T12:17:12.048Z,44.04
2019-02-15T12:18:12.038Z,44.24
2019-02-15T12:19:12.027Z,43.32
2019-02-15T12:20:12.051Z,42.31
2019-02-15T12:21:11.998Z,42.59
2019-02-15T12:22:12.005Z,43.30
2019-02-15T12:23:12.165Z,41.99
2019-02-15T12:24:12.007Z,42.90
2019-02-15T12:25:12.901Z,43.10
2019-02-15T12:26:11.948Z,42.19
2019-02-15T12:27:11.978Z,42.69
2019-02-15T12:28:11.921Z,42.59
2019-02-15T12:29:12.041Z,43.41
2019-02-15T12:30:11.969Z,43.51
2019-02-15T12:31:12.761Z,43.30
2019-02-15T12:32:11.906Z,43.91
2019-02-15T12:33:11.993Z,43.51
2019-02-15T12:34:12.933Z,42.68
2019-02-15T12:35:11.997Z,43.38
2019-02-15T12:36:11.963Z,42.57
2019-02-15T12:37:13.588Z,42.27
2019-02-15T12:38:11.845Z,41.86
2019-02-15T12:39:14.236Z,42.55
2019-02-15T12:40:11.967Z,42.17
2019-02-15T12:41:11.884Z,41.76
2019-02-15T12:42:11.862Z,42.17
2019-02-15T12:43:11.842Z,42.35
2019-02-15T12:44:11.864Z,41.56
2019-02-15T12:45:12.541Z,41.44
2019-02-15T12:46:11.803Z,41.84
2019-02-15T12:47:15.230Z,41.54
2019-02-15T12:48:11.826Z,41.64
2019-02-15T12:49:11.792Z,42.54
2019-02-15T12:50:11.794Z,41.93
2019-02-15T12:51:12.461Z,42.13
2019-02-15T12:52:11.807Z,42.02
2019-02-15T12:53:11.788Z,42.23
2019-02-15T12:54:11.717Z,42.13
2019-02-15T12:56:04.354Z,42.33
2019-02-15T12:57:03.464Z,41.72
2019-02-15T12:58:03.300Z,41.52